Flight Track Log - Related Links

Times and Time Zones

All times are in EST time to prevent confusion due to time zone crossing. See the FLG4222 flight status page for this flight to view local times or setup timezone preferences in your user account.

Time Position Orientation Groundspeed Altitude Reporting Facility
EST Latitude Longitude Course Direction KTS MPH feet Rate Location/Type
Mon 10:07:23 AM 42.2339 -83.3317 36° Northeast 146 168 1,700  Level Cleveland Center
Mon 10:08:24 AM 42.2747 -83.2922 36° Northeast 203 234 3,900 2,057 Climbing Cleveland Center
Mon 10:08:33 AM 42.2806 -83.2869 34° Northeast 199 229 4,100 1,944 Climbing Cleveland Center
Mon 10:09:35 AM 42.2964 -83.1961 77° East 257 296 6,200 2,323 Climbing Cleveland Center
Mon 10:10:37 AM 42.2767 -83.0903 104° East 286 329 8,900 2,226 Climbing Cleveland Center
Mon 10:11:39 AM 42.2772 -82.9708 90° East 323 372 10,800 1,742 Climbing Cleveland Center
Mon 10:12:41 AM 42.3014 -82.8414 76° East 350 403 12,500 1,694 Climbing Cleveland Center
Mon 10:13:43 AM 42.3250 -82.6986 77° East 379 436 14,300 2,032 Climbing Cleveland Center
Mon 10:14:45 AM 42.3561 -82.5200 77° East 402 463 16,700 1,984 Climbing Cleveland Center
Mon 10:15:47 AM 42.3647 -82.3683 86° East 405 466 18,400 1,597 Climbing Cleveland Center
Mon 10:16:49 AM 42.3586 -82.2122 93° East 415 478 20,000 1,452 Climbing Cleveland Center
Mon 10:17:51 AM 42.3522 -82.0431 93° East 424 488 21,400 1,210 Climbing Cleveland Center
Mon 10:18:53 AM 42.3442 -81.8783 94° East 432 497 22,500 1,016 Climbing Cleveland Center
Mon 10:19:55 AM 42.3367 -81.7103 93° East 440 506 23,500 726 Climbing Cleveland Center
Mon 10:20:57 AM 42.3283 -81.5392 94° East 449 517 24,000 581 Climbing Cleveland Center
Mon 10:21:59 AM 42.3200 -81.3625 94° East 461 531 24,700 871 Climbing Cleveland Center
Mon 10:23:01 AM 42.3111 -81.1872 94° East 463 533 25,800 1,016 Climbing Cleveland Center
Mon 10:24:03 AM 42.3022 -81.0142 94° East 460 529 26,800 581 Climbing Cleveland Center
Mon 10:25:05 AM 42.2922 -80.8128 94° East 457 526 27,000 97 Climbing Cleveland Center
Mon 10:26:07 AM 42.2822 -80.6317 94° East 472 543 27,000  Level Cleveland Center
Mon 10:27:09 AM 42.2719 -80.4489 94° East 481 554 27,000  Level Cleveland Center
Mon 10:28:11 AM 42.2617 -80.2631 94° East 490 564 27,000  Level Cleveland Center
Mon 10:29:13 AM 42.2506 -80.0808 95° East 484 557 27,000  Level Cleveland Center
Mon 10:30:15 AM 42.2389 -79.8956 95° East 479 551 27,000  Level Cleveland Center
Mon 10:31:17 AM 42.2272 -79.7178 95° East 478 550 27,000  Level Cleveland Center
Mon 10:32:19 AM 42.2156 -79.5397 95° East 479 551 27,000  Level Cleveland Center
Mon 10:33:22 AM 42.2017 -79.3250 95° East 480 552 27,000  Level Cleveland Center
Mon 10:34:24 AM 42.1897 -79.1469 95° East 479 551 27,000  Level Cleveland Center
Mon 10:35:26 AM 42.1914 -78.9661 89° East 486 559 27,000  Level Cleveland Center
Mon 10:36:28 AM 42.1944 -78.7683 89° East 481 554 27,000  Level Cleveland Center
Mon 10:37:30 AM 42.1975 -78.5892 89° East 480 552 27,000 -242 Level Cleveland Center
Mon 10:38:32 AM 42.2006 -78.4119 89° East 477 549 26,500 -968 Descending Cleveland Center
Mon 10:39:34 AM 42.2028 -78.2300 89° East 485 558 25,000 -1,452 Descending Cleveland Center
Mon 10:40:36 AM 42.2042 -78.0522 89° East 482 555 23,500 -968 Descending Cleveland Center
Mon 10:41:38 AM 42.2067 -77.8406 89° East 475 547 23,000 -242 Descending Cleveland Center
Mon 10:42:40 AM 42.2078 -77.6678 89° East 470 541 23,000 -532 Level Cleveland Center
Mon 10:43:42 AM 42.2092 -77.4958 89° East 465 535 21,900 -1,258 Descending Cleveland Center
Mon 10:44:44 AM 42.2097 -77.3250 90° East 461 531 20,400 -1,452 Descending Cleveland Center
Mon 10:45:46 AM 42.2103 -77.1561 90° East 456 525 18,900 -1,584 Descending Cleveland Center
Mon 10:46:49 AM 42.2108 -76.9689 90° East 406 467 17,100 -1,632 Descending Cleveland Center
Mon 10:47:51 AM 42.2103 -76.8344 90° East 364 419 15,500 -1,887 Descending Cleveland Center
Mon 10:48:53 AM 42.2106 -76.7075 90° East 346 398 13,200 -2,323 Descending Cleveland Center
Mon 10:49:55 AM 42.2258 -76.5931 80° East 318 366 10,700 -2,710 Descending Cleveland Center
Mon 10:50:57 AM 42.2603 -76.4886 66° East 306 352 7,600 -3,145 Descending Cleveland Center
Mon 10:51:59 AM 42.2981 -76.3728 66° East 290 334 4,200 -2,081 Descending Cleveland Center
Mon 10:53:01 AM 42.3225 -76.2767 71° East 280 322 3,300 -435 Descending Cleveland Center
Mon 10:54:03 AM 42.3286 -76.1978 84° East 240 276 3,300  Level Cleveland Center
Mon 10:55:05 AM 42.3297 -76.1181 89° East 238 274 3,300  Level Cleveland Center
Mon 10:56:03 AM 42.3028 -76.0669 125° Southeast 202 232 3,300 -203 Level New York Center
Mon 10:57:03 AM 42.2628 -76.0300 146° Southeast 169 194 2,900 -600 Descending New York Center
Mon 10:58:03 AM 42.2308 -75.9994 145° Southeast 161 185 2,100 -800 Descending New York Center

Login

Don't have an account? Register now (free) for customized features, flight alerts, and more!